Hoffman, North Carolina
Current Conditions -  °F | °C
As of 7:56 AM on Tuesday 21 Oct 2014 (Local Time) from KHFF Reporting Station
Clear Clear  
Wind Chill: 47°   Ceiling: Unl
Heat Index: 47°   Visibility: 10mi
Dew Point: 47°   Wind: 1mph
Humidity: 99%   Direction: 330°NNW
Pressure: 29.95"   Gusts: NA
Location:  35.03°N, 79.55°W
Report Text: KHFF 211156Z AUTO 33001KT 10SM CLR 09/08 A2995 RMK AO2 SLP144 T00850083 10122 20080 53002
Loading
Personal Weather Stations






























Interactive Weather Map
Tropical Storm Tracking
New forecast layout! Learn more

10-Day Weather Forecast

Advertisements
Track Severe Weather on mobile